Time;durP1;ratioP1;P1;durP2;ratioP2;P2;SDS_P1;SDS_P2;PMS_P1;PMS_P2;Temp;Humidity;BMP_temperature;BMP_pressure;BME280_temperature;BME280_humidity;BME280_pressure;Samples;Min_cycle;Max_cycle;Signal;HPM_P1;HPM_P2
2022/12/09 00:01:16;;;;;;;4.30;4.10;;;17.00;65.20;;;;;;5128803;27;43609;-74
2022/12/09 00:03:44;;;;;;;4.27;4.07;;;16.90;65.10;;;;;;5125893;27;43426;-75
2022/12/09 00:06:14;;;;;;;4.33;4.13;;;16.90;65.40;;;;;;5126443;27;43388;-76
2022/12/09 00:08:42;;;;;;;4.20;4.07;;;16.90;65.30;;;;;;5120462;27;43441;-77
2022/12/09 00:11:12;;;;;;;4.30;4.10;;;16.90;65.40;;;;;;5115667;27;45045;-76
2022/12/09 00:13:40;;;;;;;4.57;4.37;;;16.90;65.30;;;;;;5120564;27;43453;-74
2022/12/09 00:16:10;;;;;;;4.00;3.80;;;16.90;65.30;;;;;;5124409;27;43369;-76
2022/12/09 00:18:38;;;;;;;4.33;4.13;;;16.90;65.40;;;;;;5118300;27;43441;-75
2022/12/09 00:21:14;;;;;;;4.37;4.17;;;16.90;65.80;;;;;;5112336;27;45987;-73
2022/12/09 00:23:42;;;;;;;4.40;4.20;;;16.90;65.80;;;;;;5100963;27;45151;-72
2022/12/09 00:26:10;;;;;;;4.40;4.20;;;17.00;65.30;;;;;;5106269;27;44580;-77
2022/12/09 00:28:39;;;;;;;4.60;4.50;;;17.00;65.80;;;;;;5100115;27;43596;-74
2022/12/09 00:31:09;;;;;;;4.20;4.00;;;17.00;65.10;;;;;;5104013;27;43555;-76
2022/12/09 00:33:38;;;;;;;4.50;4.30;;;17.00;65.20;;;;;;5112868;27;43998;-75
2022/12/09 00:36:07;;;;;;;4.47;4.27;;;17.00;65.20;;;;;;5099812;27;43451;-76
2022/12/09 00:38:35;;;;;;;4.33;4.13;;;16.90;65.30;;;;;;5112677;27;43982;-78
2022/12/09 00:41:03;;;;;;;3.93;3.83;;;16.90;65.10;;;;;;5109434;27;43649;-76
2022/12/09 00:43:31;;;;;;;4.30;4.10;;;16.90;65.10;;;;;;5109498;27;43462;-75
2022/12/09 00:45:59;;;;;;;4.50;4.30;;;16.90;65.20;;;;;;5094115;27;43954;-76
2022/12/09 00:48:29;;;;;;;4.00;3.90;;;16.90;65.10;;;;;;5118025;27;43453;-76
2022/12/09 00:50:58;;;;;;;4.00;3.90;;;16.90;65.20;;;;;;5103141;27;43841;-76
2022/12/09 00:53:26;;;;;;;4.43;4.33;;;16.90;65.60;;;;;;5105929;27;43488;-78
2022/12/09 00:55:54;;;;;;;4.43;4.23;;;16.90;65.80;;;;;;5114463;27;43396;-75
2022/12/09 00:58:23;;;;;;;4.73;4.43;;;17.00;65.40;;;;;;5094392;27;43582;-78
2022/12/09 01:00:52;;;;;;;4.07;3.87;;;17.10;65.00;;;;;;5096783;27;43870;-77
2022/12/09 01:03:20;;;;;;;4.00;3.90;;;17.10;64.80;;;;;;5103739;27;44748;-77
2022/12/09 01:05:50;;;;;;;4.30;4.10;;;17.00;64.80;;;;;;5104150;27;43525;-76
2022/12/09 01:08:18;;;;;;;4.10;3.90;;;17.00;65.00;;;;;;5097200;27;43697;-75
2022/12/09 01:10:46;;;;;;;4.40;4.20;;;17.00;65.20;;;;;;5100081;27;45662;-76
2022/12/09 01:13:18;;;;;;;4.40;4.20;;;17.00;65.00;;;;;;5108286;27;44732;-75
2022/12/09 01:15:47;;;;;;;4.30;4.10;;;16.90;65.10;;;;;;5104703;27;43522;-75
2022/12/09 01:18:15;;;;;;;4.60;4.40;;;17.00;65.20;;;;;;5106098;27;43515;-76
2022/12/09 01:20:43;;;;;;;4.73;4.53;;;16.90;65.10;;;;;;5112848;27;43869;-78
2022/12/09 01:23:13;;;;;;;4.27;4.07;;;16.90;65.10;;;;;;5098658;27;43403;-76
2022/12/09 01:25:41;;;;;;;4.30;4.10;;;16.90;65.40;;;;;;5103518;27;43610;-76
2022/12/09 01:28:10;;;;;;;3.80;3.70;;;16.90;65.20;;;;;;5103544;27;43572;-77
2022/12/09 01:30:38;;;;;;;4.40;4.20;;;16.90;65.30;;;;;;5095241;27;43606;-76
2022/12/09 01:33:07;;;;;;;4.07;3.97;;;16.90;65.20;;;;;;5113376;27;43571;-76
2022/12/09 01:35:35;;;;;;;4.83;4.53;;;16.90;65.10;;;;;;5109046;27;43409;-76
2022/12/09 01:38:03;;;;;;;4.30;4.10;;;16.90;65.20;;;;;;5099057;27;44006;-78
2022/12/09 01:40:32;;;;;;;4.67;4.37;;;16.80;65.30;;;;;;5093981;27;46319;-75
2022/12/09 01:43:01;;;;;;;4.57;4.37;;;16.80;65.60;;;;;;5106598;27;43508;-77
2022/12/09 01:45:48;;;;;;;3.97;3.87;;;16.90;65.50;;;;;;5099825;27;43533;-76
2022/12/09 01:48:17;;;;;;;4.70;4.53;;;17.00;65.10;;;;;;5106960;27;43821;-77
2022/12/09 01:50:49;;;;;;;4.20;4.00;;;17.10;64.60;;;;;;5097583;27;43710;-75
2022/12/09 01:53:17;;;;;;;4.60;4.43;;;17.10;64.60;;;;;;5097627;27;44510;-74
2022/12/09 01:55:47;;;;;;;4.00;3.90;;;17.00;64.70;;;;;;5112154;27;43475;-76
2022/12/09 01:58:16;;;;;;;4.50;4.30;;;17.00;65.10;;;;;;5090442;27;43484;-76
2022/12/09 02:00:44;;;;;;;4.17;4.07;;;17.00;64.70;;;;;;5109524;27;44235;-75
2022/12/09 02:03:12;;;;;;;4.37;4.23;;;17.00;64.90;;;;;;5093393;27;43497;-76
2022/12/09 02:05:41;;;;;;;3.67;3.57;;;17.00;64.80;;;;;;5094588;27;43555;-76
2022/12/09 02:08:11;;;;;;;4.20;4.10;;;17.00;65.00;;;;;;5106721;27;44146;-76
2022/12/09 02:10:47;;;;;;;4.33;4.20;;;16.90;64.90;;;;;;5094770;27;45615;-76
2022/12/09 02:13:21;;;;;;;4.70;4.50;;;16.90;65.10;;;;;;5093024;27;44579;-75
2022/12/09 02:15:52;;;;;;;4.53;4.33;;;16.90;65.20;;;;;;5103353;27;44088;-76
2022/12/09 02:18:22;;;;;;;4.37;4.17;;;16.90;65.10;;;;;;5098368;27;44015;-76
2022/12/09 02:20:53;;;;;;;4.50;4.30;;;16.90;65.20;;;;;;5110167;27;44677;-76
2022/12/09 02:23:24;;;;;;;4.50;4.30;;;16.90;65.10;;;;;;5104296;27;43792;-74
2022/12/09 02:25:56;;;;;;;4.67;4.47;;;16.80;65.10;;;;;;5101463;27;44054;-75
2022/12/09 02:28:39;;;;;;;4.90;4.70;;;16.80;65.20;;;;;;5102999;27;43547;-78
2022/12/09 02:31:15;;;;;;;4.57;4.27;;;16.80;65.60;;;;;;5106463;27;45321;-76
2022/12/09 02:34:11;;;;;;;4.63;4.43;;;17.00;65.30;;;;;;5116698;27;43483;-77
2022/12/09 02:36:44;;;;;;;4.53;4.33;;;17.00;64.80;;;;;;5095578;27;43948;-75
2022/12/09 02:39:12;;;;;;;4.90;4.70;;;17.00;64.50;;;;;;5105534;27;43445;-78
2022/12/09 02:41:42;;;;;;;4.47;4.37;;;17.00;64.60;;;;;;5099626;27;43995;-76
2022/12/09 02:44:12;;;;;;;4.23;4.13;;;17.00;64.60;;;;;;5098835;27;45011;-79
2022/12/09 02:46:40;;;;;;;4.60;4.40;;;17.00;65.00;;;;;;5111962;27;43611;-76
2022/12/09 02:49:12;;;;;;;4.40;4.30;;;17.00;64.80;;;;;;5107425;27;43468;-74
2022/12/09 02:51:41;;;;;;;4.37;4.27;;;17.00;64.80;;;;;;5102153;27;44186;-76
2022/12/09 02:54:13;;;;;;;4.33;4.13;;;16.90;64.80;;;;;;5097494;27;44687;-77
2022/12/09 02:56:45;;;;;;;4.67;4.53;;;16.90;64.90;;;;;;5102018;27;43558;-77
2022/12/09 02:59:13;;;;;;;4.63;4.40;;;16.90;64.90;;;;;;5097501;27;43496;-75
2022/12/09 03:01:43;;;;;;;4.50;4.40;;;16.90;65.10;;;;;;5093676;27;45569;-77
2022/12/09 03:04:15;;;;;;;4.80;4.60;;;16.90;65.10;;;;;;5100490;27;43450;-77
2022/12/09 03:06:47;;;;;;;4.90;4.70;;;16.90;65.10;;;;;;5097181;27;44159;-72
2022/12/09 03:09:16;;;;;;;4.77;4.57;;;16.90;65.10;;;;;;5111425;27;43987;-78
2022/12/09 03:11:45;;;;;;;4.57;4.47;;;16.90;65.10;;;;;;5097814;27;43889;-76
2022/12/09 03:14:16;;;;;;;4.93;4.73;;;16.80;65.00;;;;;;5104394;27;43821;-73
2022/12/09 03:16:46;;;;;;;4.60;4.50;;;16.80;65.10;;;;;;5106527;27;43900;-74
2022/12/09 03:19:18;;;;;;;4.90;4.70;;;16.90;65.50;;;;;;5101161;27;44026;-76
2022/12/09 03:21:48;;;;;;;4.63;4.53;;;16.90;65.10;;;;;;5109374;27;43815;-78
2022/12/09 03:24:17;;;;;;;4.63;4.43;;;17.00;64.80;;;;;;5096543;27;43370;-73
2022/12/09 03:26:45;;;;;;;5.10;4.90;;;17.00;64.40;;;;;;5110149;27;43460;-77
2022/12/09 03:29:16;;;;;;;4.33;4.23;;;17.00;64.40;;;;;;5105487;27;43485;-71
2022/12/09 03:31:44;;;;;;;4.17;4.07;;;17.00;64.50;;;;;;5108281;27;43646;-76
2022/12/09 03:34:14;;;;;;;4.57;4.47;;;17.00;65.10;;;;;;5112991;27;43506;-75
2022/12/09 03:36:43;;;;;;;4.53;4.40;;;16.90;64.50;;;;;;5097920;27;44160;-77
2022/12/09 03:39:14;;;;;;;4.20;4.10;;;16.90;65.40;;;;;;5107026;27;43961;-77
2022/12/09 03:41:44;;;;;;;4.73;4.57;;;17.00;64.80;;;;;;5103703;27;43629;-77
2022/12/09 03:44:13;;;;;;;4.70;4.50;;;16.90;64.60;;;;;;5113597;27;43511;-74
2022/12/09 03:46:42;;;;;;;4.37;4.27;;;16.90;64.80;;;;;;5106928;27;43476;-77
2022/12/09 03:49:10;;;;;;;4.50;4.40;;;16.80;64.90;;;;;;5099861;27;44097;-77
2022/12/09 03:51:40;;;;;;;4.90;4.70;;;16.90;65.00;;;;;;5099314;27;43829;-76
2022/12/09 03:54:13;;;;;;;4.47;4.37;;;16.90;65.00;;;;;;5105899;27;44577;-76
2022/12/09 03:56:44;;;;;;;4.60;4.50;;;16.90;64.90;;;;;;5107808;27;43819;-78
2022/12/09 03:59:13;;;;;;;4.70;4.50;;;16.80;64.80;;;;;;5104897;27;43496;-76
2022/12/09 04:01:43;;;;;;;4.40;4.30;;;16.80;64.90;;;;;;5102314;27;43966;-77
2022/12/09 04:04:13;;;;;;;4.40;4.30;;;16.80;65.00;;;;;;5108408;27;43484;-74
2022/12/09 04:06:42;;;;;;;4.57;4.47;;;16.80;65.40;;;;;;5106161;27;44021;-75
2022/12/09 04:09:12;;;;;;;4.97;4.77;;;16.90;65.30;;;;;;5106837;27;43585;-74
2022/12/09 04:11:40;;;;;;;4.57;4.47;;;17.00;64.90;;;;;;5117713;27;45652;-77
2022/12/09 04:14:08;;;;;;;4.53;4.43;;;17.00;64.40;;;;;;5101953;27;43449;-76
2022/12/09 04:16:42;;;;;;;4.50;4.40;;;17.00;64.40;;;;;;5110800;27;43461;-77
2022/12/09 04:19:11;;;;;;;4.70;4.60;;;17.00;64.40;;;;;;5109276;27;44054;-76
2022/12/09 04:21:39;;;;;;;4.93;4.70;;;16.90;64.60;;;;;;5113460;27;44243;-77
2022/12/09 04:24:08;;;;;;;5.17;4.77;;;17.00;64.50;;;;;;5102077;27;44600;-75
2022/12/09 04:26:37;;;;;;;4.43;4.33;;;16.90;64.50;;;;;;5106370;27;43387;-73
2022/12/09 04:29:05;;;;;;;4.97;4.70;;;16.90;64.70;;;;;;5105406;27;43501;-73
2022/12/09 04:31:33;;;;;;;4.37;4.27;;;16.90;64.80;;;;;;5108932;27;43602;-74
2022/12/09 04:34:02;;;;;;;4.90;4.70;;;16.90;64.80;;;;;;5107673;27;43491;-76
2022/12/09 04:36:37;;;;;;;4.53;4.33;;;16.80;64.80;;;;;;5107377;27;43516;-76
2022/12/09 04:39:05;;;;;;;5.07;4.73;;;16.80;65.00;;;;;;5109079;27;43703;-77
2022/12/09 04:41:33;;;;;;;4.90;4.70;;;16.80;64.70;;;;;;5111999;27;43963;-77
2022/12/09 04:44:03;;;;;;;5.30;4.90;;;16.80;64.80;;;;;;5102345;27;44678;-75
2022/12/09 04:46:31;;;;;;;5.83;5.27;;;16.80;64.80;;;;;;5105818;27;43890;-77
2022/12/09 04:49:00;;;;;;;6.10;5.60;;;16.80;64.70;;;;;;5105903;27;43917;-77
2022/12/09 04:51:28;;;;;;;10.30;6.50;;;16.80;64.80;;;;;;5111139;27;43551;-75
2022/12/09 04:54:06;;;;;;;9.00;6.50;;;16.80;65.10;;;;;;5105724;27;43385;-77
2022/12/09 04:56:34;;;;;;;14.47;7.67;;;16.80;65.10;;;;;;5094735;27;44022;-73
2022/12/09 04:59:03;;;;;;;15.63;8.27;;;17.00;65.10;;;;;;5103782;27;43503;-77
2022/12/09 05:01:32;;;;;;;16.90;8.13;;;17.00;64.30;;;;;;5110093;27;45107;-75
2022/12/09 05:04:00;;;;;;;16.57;8.17;;;17.00;64.10;;;;;;5108318;27;43472;-77
2022/12/09 05:06:29;;;;;;;19.03;9.27;;;17.00;64.10;;;;;;5107670;27;43509;-78
2022/12/09 05:08:57;;;;;;;20.50;9.70;;;17.00;64.20;;;;;;5097714;27;43498;-77
2022/12/09 05:11:27;;;;;;;22.93;10.47;;;17.00;64.50;;;;;;5111120;27;45750;-75
2022/12/09 05:13:55;;;;;;;21.73;10.30;;;17.00;64.40;;;;;;5102946;27;43436;-75
2022/12/09 05:16:24;;;;;;;18.43;10.20;;;17.00;64.20;;;;;;5106796;27;44161;-78
2022/12/09 05:18:53;;;;;;;23.87;11.20;;;17.00;64.30;;;;;;5107925;27;43552;-76
2022/12/09 05:21:21;;;;;;;21.80;10.90;;;16.90;64.30;;;;;;5110998;27;43938;-77
2022/12/09 05:23:50;;;;;;;25.50;10.93;;;16.90;64.30;;;;;;5094242;27;43543;-77
2022/12/09 05:26:19;;;;;;;22.80;11.00;;;16.90;64.70;;;;;;5109914;27;43496;-77
2022/12/09 05:28:47;;;;;;;26.60;12.27;;;16.90;64.50;;;;;;5103349;27;43518;-75
2022/12/09 05:31:16;;;;;;;27.17;11.07;;;16.90;64.60;;;;;;5093308;27;45594;-76
2022/12/09 05:33:46;;;;;;;28.60;12.90;;;16.90;64.70;;;;;;5092156;27;44594;-77
2022/12/09 05:36:15;;;;;;;29.60;12.77;;;16.90;64.50;;;;;;5103580;27;44087;-71
2022/12/09 05:38:44;;;;;;;26.87;12.30;;;16.90;64.30;;;;;;5102775;27;44045;-76
2022/12/09 05:41:12;;;;;;;26.53;12.07;;;16.90;64.10;;;;;;5109362;27;43610;-76
2022/12/09 05:43:41;;;;;;;31.87;13.43;;;16.80;64.50;;;;;;5102551;27;43472;-78
2022/12/09 05:46:09;;;;;;;27.73;12.40;;;16.90;64.60;;;;;;5105408;27;43471;-76
2022/12/09 05:48:37;;;;;;;23.97;11.77;;;17.00;64.30;;;;;;5102138;27;43927;-74
2022/12/09 05:51:09;;;;;;;23.77;11.57;;;17.00;63.80;;;;;;5107269;27;43866;-77
2022/12/09 05:53:37;;;;;;;21.47;11.50;;;17.00;63.60;;;;;;5111511;27;43449;-75
2022/12/09 05:56:06;;;;;;;24.03;12.53;;;17.00;63.80;;;;;;5100855;27;43939;-78
2022/12/09 05:58:34;;;;;;;25.33;12.57;;;17.00;64.00;;;;;;5103136;27;43516;-77
2022/12/09 06:01:05;;;;;;;21.47;11.53;;;17.00;63.90;;;;;;5102109;27;43964;-75
2022/12/09 06:03:34;;;;;;;23.40;12.23;;;17.00;64.00;;;;;;5105463;27;43467;-75
2022/12/09 06:06:06;;;;;;;26.27;12.83;;;17.00;64.10;;;;;;5116311;27;44869;-75
2022/12/09 06:08:35;;;;;;;24.33;12.23;;;17.00;64.10;;;;;;5103657;27;43462;-77
2022/12/09 06:11:04;;;;;;;21.03;11.03;;;16.90;64.10;;;;;;5109701;27;44160;-77
2022/12/09 06:13:32;;;;;;;25.20;12.60;;;16.80;64.00;;;;;;5103942;27;45225;-76
2022/12/09 06:16:02;;;;;;;23.60;11.40;;;16.90;64.50;;;;;;5103704;27;43493;-77
2022/12/09 06:18:31;;;;;;;22.37;11.13;;;16.90;64.30;;;;;;5105276;27;43499;-77
2022/12/09 06:20:59;;;;;;;22.53;11.23;;;16.90;64.50;;;;;;5100738;27;44338;-75
2022/12/09 06:23:29;;;;;;;21.53;11.17;;;16.80;64.40;;;;;;5103388;27;43432;-76
2022/12/09 06:25:57;;;;;;;19.10;10.57;;;16.80;64.40;;;;;;5111825;27;43527;-77
2022/12/09 06:28:25;;;;;;;19.10;10.97;;;16.80;64.50;;;;;;5099199;27;43509;-74
2022/12/09 06:30:54;;;;;;;17.90;10.00;;;16.80;64.70;;;;;;5107000;27;43862;-72
2022/12/09 06:33:22;;;;;;;16.97;10.47;;;16.80;64.60;;;;;;5109093;27;44581;-75
2022/12/09 06:36:10;;;;;;;18.43;10.17;;;16.80;64.50;;;;;;5102005;27;43387;-75
2022/12/09 06:38:40;;;;;;;17.93;10.43;;;16.80;64.40;;;;;;5105493;27;43507;-75
2022/12/09 06:41:09;;;;;;;18.00;10.03;;;16.80;64.40;;;;;;5103117;27;43600;-77
2022/12/09 06:43:37;;;;;;;21.57;10.70;;;16.80;64.40;;;;;;5110633;27;43881;-74
2022/12/09 06:46:11;;;;;;;20.57;11.00;;;16.80;64.40;;;;;;5101204;27;43423;-75
2022/12/09 06:48:40;;;;;;;16.43;9.67;;;16.80;65.00;;;;;;5099525;27;43555;-76
2022/12/09 06:51:08;;;;;;;20.67;10.10;;;16.90;64.90;;;;;;5100972;27;43998;-77
2022/12/09 06:53:36;;;;;;;17.33;10.10;;;17.00;64.50;;;;;;5106899;27;44594;-77
2022/12/09 06:56:07;;;;;;;17.00;9.83;;;17.10;64.00;;;;;;5099179;27;43816;-76
2022/12/09 06:58:40;;;;;;;15.57;9.53;;;17.10;63.70;;;;;;5108578;27;44039;-77
2022/12/09 07:01:12;;;;;;;17.63;9.97;;;17.10;63.70;;;;;;5095243;27;45737;-78
2022/12/09 07:03:40;;;;;;;15.77;9.50;;;17.10;64.20;;;;;;5109704;27;43450;-77
2022/12/09 07:06:16;;;;;;;16.00;9.43;;;17.10;63.90;;;;;;5109874;27;43541;-77
2022/12/09 07:08:44;;;;;;;12.87;8.90;;;17.10;63.80;;;;;;5106237;27;44146;-74
2022/12/09 07:11:14;;;;;;;17.33;9.47;;;17.10;63.90;;;;;;5107432;27;43827;-78
2022/12/09 07:13:42;;;;;;;12.47;8.13;;;17.00;63.90;;;;;;5104797;27;43878;-78
2022/12/09 07:16:11;;;;;;;15.50;9.43;;;17.00;63.90;;;;;;5107036;27;43899;-77
2022/12/09 07:18:39;;;;;;;12.67;8.40;;;17.00;64.20;;;;;;5101384;27;43560;-76
2022/12/09 07:21:10;;;;;;;14.93;9.27;;;16.90;64.20;;;;;;5100292;27;45480;-76
2022/12/09 07:23:39;;;;;;;10.97;8.00;;;16.90;64.30;;;;;;5104586;27;43488;-76
2022/12/09 07:26:07;;;;;;;12.67;8.33;;;16.90;64.30;;;;;;5105155;27;43483;-78
2022/12/09 07:28:37;;;;;;;9.97;8.03;;;16.90;64.30;;;;;;5112459;27;43457;-77
2022/12/09 07:31:06;;;;;;;11.03;7.80;;;16.90;64.40;;;;;;5107579;27;43908;-76
2022/12/09 07:33:34;;;;;;;14.43;8.10;;;16.90;64.40;;;;;;5112130;27;43454;-76
2022/12/09 07:36:03;;;;;;;12.27;8.23;;;16.90;64.80;;;;;;5112309;27;43467;-76
2022/12/09 07:38:31;;;;;;;12.00;8.10;;;16.90;64.80;;;;;;5105838;27;43500;-74
2022/12/09 07:41:04;;;;;;;8.40;7.53;;;17.00;64.50;;;;;;5104254;27;44070;-75
2022/12/09 07:43:33;;;;;;;11.87;8.27;;;17.00;63.90;;;;;;5112406;27;43484;-75
2022/12/09 07:46:06;;;;;;;9.50;7.30;;;17.00;63.80;;;;;;5110837;27;43378;-76
2022/12/09 07:48:35;;;;;;;11.30;8.10;;;17.00;63.80;;;;;;5104710;27;43953;-76
2022/12/09 07:51:03;;;;;;;10.10;7.60;;;17.00;64.10;;;;;;5095829;27;45603;-76
2022/12/09 07:53:33;;;;;;;9.73;7.33;;;17.00;64.10;;;;;;5116753;27;43439;-73
2022/12/09 07:56:01;;;;;;;10.87;7.83;;;17.00;64.00;;;;;;5108762;27;43968;-77
2022/12/09 07:58:30;;;;;;;11.43;8.30;;;16.90;64.00;;;;;;5107446;27;43975;-76
2022/12/09 08:01:02;;;;;;;8.53;6.80;;;16.90;64.10;;;;;;5103004;27;43741;-76
2022/12/09 08:03:32;;;;;;;10.03;7.33;;;16.90;64.10;;;;;;5112317;27;44585;-75
2022/12/09 08:06:01;;;;;;;8.47;6.87;;;16.90;64.20;;;;;;5104416;27;44114;-77
2022/12/09 08:08:29;;;;;;;10.17;7.93;;;16.90;64.40;;;;;;5106302;27;43527;-75
2022/12/09 08:11:06;;;;;;;10.50;7.30;;;16.90;64.30;;;;;;5096258;27;43924;-72
2022/12/09 08:13:34;;;;;;;7.90;7.10;;;16.80;64.10;;;;;;5109139;27;43848;-76
2022/12/09 08:16:04;;;;;;;8.73;6.70;;;16.90;64.20;;;;;;5104756;27;43988;-75
2022/12/09 08:18:33;;;;;;;8.00;6.93;;;16.90;64.20;;;;;;5106819;27;43471;-76
2022/12/09 08:21:03;;;;;;;7.83;7.03;;;16.90;64.40;;;;;;5102616;27;43686;-75
2022/12/09 08:23:32;;;;;;;8.67;6.87;;;16.80;64.60;;;;;;5101600;27;43490;-75
2022/12/09 08:26:00;;;;;;;8.33;6.70;;;16.90;64.70;;;;;;5107401;27;43453;-76
2022/12/09 08:28:29;;;;;;;8.10;6.63;;;17.00;64.20;;;;;;5107283;27;43438;-77
2022/12/09 08:30:57;;;;;;;8.13;6.57;;;17.00;63.80;;;;;;5111336;27;45657;-77
2022/12/09 08:33:26;;;;;;;7.17;6.47;;;17.00;63.80;;;;;;5105548;27;44047;-76
2022/12/09 08:35:55;;;;;;;9.17;6.93;;;17.00;63.80;;;;;;5097921;27;43404;-75
2022/12/09 08:38:24;;;;;;;7.60;6.80;;;17.00;64.10;;;;;;5113113;27;43639;-75
2022/12/09 08:40:52;;;;;;;9.00;6.90;;;16.90;64.00;;;;;;5110110;27;43735;-77
2022/12/09 08:43:20;;;;;;;6.87;6.30;;;17.00;64.00;;;;;;5106138;27;43750;-75
2022/12/09 08:45:49;;;;;;;7.07;6.47;;;16.90;64.00;;;;;;5104785;27;43539;-75
2022/12/09 08:48:17;;;;;;;6.77;6.17;;;16.90;64.00;;;;;;5104380;27;43549;-76
2022/12/09 08:50:45;;;;;;;8.03;6.03;;;16.90;64.10;;;;;;5105533;27;43835;-72
2022/12/09 08:53:15;;;;;;;6.63;6.03;;;16.90;64.10;;;;;;5107796;27;44292;-76
2022/12/09 08:55:43;;;;;;;8.60;6.40;;;16.90;64.30;;;;;;5099800;27;44124;-76
2022/12/09 08:58:12;;;;;;;6.60;6.00;;;16.90;64.20;;;;;;5114407;27;43569;-76
2022/12/09 09:00:40;;;;;;;6.93;6.33;;;16.90;64.30;;;;;;5095562;27;43836;-79
2022/12/09 09:03:08;;;;;;;6.53;5.93;;;16.80;64.10;;;;;;5108830;27;43972;-78
2022/12/09 09:05:37;;;;;;;6.43;5.87;;;16.80;64.20;;;;;;5111652;27;43520;-77
2022/12/09 09:08:06;;;;;;;6.30;5.70;;;16.80;64.20;;;;;;5097261;27;43567;-76
2022/12/09 09:10:36;;;;;;;5.97;5.47;;;16.80;64.50;;;;;;5103565;27;44182;-76
2022/12/09 09:13:05;;;;;;;6.27;5.80;;;16.80;64.60;;;;;;5117766;27;43421;-74
2022/12/09 09:15:33;;;;;;;6.23;5.70;;;16.90;64.50;;;;;;5103738;27;43520;-77
2022/12/09 09:18:03;;;;;;;6.17;5.67;;;17.00;64.10;;;;;;5105356;27;43542;-76
2022/12/09 09:20:31;;;;;;;5.37;5.07;;;17.00;63.70;;;;;;5114451;27;44255;-75
2022/12/09 09:22:59;;;;;;;6.57;6.07;;;17.00;63.70;;;;;;5107491;27;45008;-76
2022/12/09 09:25:31;;;;;;;5.70;5.30;;;17.00;63.80;;;;;;5101492;27;43470;-75
2022/12/09 09:28:00;;;;;;;6.10;5.67;;;17.00;64.00;;;;;;5108075;27;43502;-75
2022/12/09 09:30:29;;;;;;;6.20;5.80;;;17.00;63.90;;;;;;5109261;27;43613;-77
2022/12/09 09:32:57;;;;;;;6.40;5.80;;;17.00;63.90;;;;;;5104313;27;44558;-76
2022/12/09 09:35:26;;;;;;;5.43;5.13;;;16.90;63.90;;;;;;5107480;27;43460;-76
2022/12/09 09:37:54;;;;;;;6.20;5.70;;;16.90;64.00;;;;;;5097610;27;43476;-77
2022/12/09 09:40:23;;;;;;;5.73;5.30;;;16.90;64.10;;;;;;5105224;27;43622;-75
2022/12/09 09:42:51;;;;;;;5.90;5.50;;;16.90;64.30;;;;;;5111425;27;43603;-77
2022/12/09 09:45:22;;;;;;;5.90;5.40;;;16.90;64.20;;;;;;5113741;27;43837;-75
2022/12/09 09:47:52;;;;;;;5.10;4.80;;;16.90;64.20;;;;;;5123238;27;43464;-77
2022/12/09 09:50:26;;;;;;;5.80;5.40;;;16.80;64.00;;;;;;5123744;27;43831;-75
2022/12/09 09:52:54;;;;;;;5.60;5.20;;;16.80;64.10;;;;;;5123125;27;44625;-74
2022/12/09 09:55:30;;;;;;;6.27;5.77;;;16.80;64.20;;;;;;5121896;27;43460;-74
2022/12/09 09:58:01;;;;;;;6.07;5.63;;;16.80;64.30;;;;;;5114579;27;43400;-78
2022/12/09 10:00:35;;;;;;;5.63;5.23;;;16.80;64.60;;;;;;5124707;27;43974;-76
2022/12/09 10:03:09;;;;;;;5.63;5.33;;;16.90;64.50;;;;;;5120013;27;44442;-77
2022/12/09 10:05:40;;;;;;;5.40;5.07;;;16.90;63.90;;;;;;5113197;27;43459;-77
2022/12/09 10:08:22;;;;;;;5.07;4.77;;;17.00;63.90;;;;;;5117455;27;43413;-77
2022/12/09 10:10:54;;;;;;;5.20;4.80;;;17.00;63.90;;;;;;5105527;27;45500;-75
2022/12/09 10:13:29;;;;;;;5.27;4.97;;;16.90;63.90;;;;;;5097862;27;44907;-78
2022/12/09 10:16:03;;;;;;;5.87;5.47;;;16.90;64.20;;;;;;5106597;27;44036;-78
2022/12/09 10:18:34;;;;;;;5.17;4.83;;;16.90;64.10;;;;;;5108877;27;43539;-75
2022/12/09 10:21:02;;;;;;;4.63;4.43;;;16.90;64.10;;;;;;5107169;27;43854;-76
2022/12/09 10:23:31;;;;;;;5.60;5.27;;;16.90;64.10;;;;;;5109156;27;43811;-76
2022/12/09 10:26:03;;;;;;;5.30;5.10;;;16.80;64.00;;;;;;5094811;27;43542;-77
2022/12/09 10:28:33;;;;;;;5.03;4.63;;;16.90;64.20;;;;;;5098179;27;44544;-77
2022/12/09 10:31:03;;;;;;;4.80;4.60;;;16.80;64.30;;;;;;5103162;27;45608;-78
2022/12/09 10:33:33;;;;;;;5.37;5.07;;;16.80;64.20;;;;;;5110559;27;43481;-77
2022/12/09 10:36:04;;;;;;;5.40;5.10;;;16.90;64.40;;;;;;5107885;27;43537;-77
2022/12/09 10:38:35;;;;;;;5.03;4.77;;;16.80;64.20;;;;;;5095402;27;43805;-77
2022/12/09 10:41:05;;;;;;;4.87;4.67;;;16.80;64.20;;;;;;5099919;27;43618;-76
2022/12/09 10:43:33;;;;;;;5.07;4.87;;;16.80;64.10;;;;;;5105715;27;43764;-76
2022/12/09 10:46:07;;;;;;;4.97;4.67;;;16.80;64.30;;;;;;5092071;27;43458;-77
2022/12/09 10:48:51;;;;;;;4.97;4.60;;;16.80;64.60;;;;;;5106637;27;43545;-76
2022/12/09 10:51:21;;;;;;;4.67;4.47;;;16.90;64.50;;;;;;5105126;27;43853;-77
2022/12/09 10:53:51;;;;;;;5.37;5.07;;;17.00;64.00;;;;;;5106959;27;43508;-75
2022/12/09 10:56:22;;;;;;;4.73;4.53;;;17.10;64.30;;;;;;5099895;27;44629;-75
2022/12/09 10:58:55;;;;;;;4.53;4.33;;;17.10;63.50;;;;;;5091918;27;44013;-78
2022/12/09 11:01:24;;;;;;;4.50;4.30;;;17.10;63.50;;;;;;5106243;27;45857;-75
2022/12/09 11:03:53;;;;;;;4.63;4.43;;;17.00;63.80;;;;;;5114402;27;43403;-77
2022/12/09 11:06:24;;;;;;;4.77;4.57;;;17.00;63.70;;;;;;5113808;27;43412;-76
2022/12/09 11:08:55;;;;;;;4.40;4.20;;;17.00;63.70;;;;;;5121136;27;43536;-74
2022/12/09 11:11:39;;;;;;;4.50;4.30;;;17.00;63.70;;;;;;5106801;27;44320;-77
2022/12/09 11:14:21;;;;;;;4.70;4.50;;;17.00;63.80;;;;;;5116054;27;44792;-77
2022/12/09 11:16:52;;;;;;;4.47;4.17;;;16.90;63.80;;;;;;5110323;27;43489;-77
2022/12/09 11:19:29;;;;;;;4.50;4.20;;;16.90;64.10;;;;;;5115997;27;43401;-75
2022/12/09 11:22:27;;;;;;;4.43;4.23;;;16.90;64.10;;;;;;5118231;27;43861;-76
2022/12/09 11:25:05;;;;;;;4.30;4.10;;;16.90;64.00;;;;;;5105886;27;43516;-75
2022/12/09 11:27:34;;;;;;;4.27;4.10;;;16.90;64.00;;;;;;5118483;27;43487;-76
2022/12/09 11:30:07;;;;;;;4.17;3.97;;;16.90;64.10;;;;;;5110248;27;43541;-75
2022/12/09 11:32:55;;;;;;;4.07;3.97;;;16.80;64.00;;;;;;5113094;27;45353;-76
2022/12/09 11:35:29;;;;;;;4.10;3.90;;;16.80;64.20;;;;;;5100318;27;43540;-76
2022/12/09 11:37:57;;;;;;;4.37;4.17;;;16.90;64.50;;;;;;5094326;27;44019;-76
2022/12/09 11:40:25;;;;;;;3.77;3.60;;;16.90;63.90;;;;;;5097105;27;43534;-76
2022/12/09 11:42:53;;;;;;;3.60;3.50;;;17.00;63.90;;;;;;5092702;27;45977;-76
2022/12/09 11:45:25;;;;;;;3.70;3.60;;;17.00;63.80;;;;;;5108440;27;44798;-73
2022/12/09 11:47:59;;;;;;;3.80;3.70;;;17.00;63.80;;;;;;5099659;27;43535;-76
2022/12/09 11:50:49;;;;;;;3.73;3.63;;;17.00;64.10;;;;;;5104018;27;43435;-77
2022/12/09 11:53:25;;;;;;;3.83;3.63;;;16.90;63.90;;;;;;5101140;27;45742;-78
2022/12/09 11:55:55;;;;;;;3.67;3.57;;;16.90;63.90;;;;;;5103238;27;43848;-78
2022/12/09 11:58:25;;;;;;;3.80;3.70;;;16.90;63.90;;;;;;5097444;27;44721;-76
2022/12/09 12:00:57;;;;;;;3.70;3.60;;;16.90;63.80;;;;;;5104800;27;43805;-74
2022/12/09 12:03:31;;;;;;;3.60;3.50;;;16.90;63.90;;;;;;5099418;27;43938;-74
2022/12/09 12:06:00;;;;;;;3.50;3.37;;;16.90;64.00;;;;;;5099801;27;44549;-76
2022/12/09 12:08:30;;;;;;;3.77;3.60;;;16.90;64.40;;;;;;5107067;27;43494;-76
2022/12/09 12:11:01;;;;;;;3.50;3.40;;;16.90;64.40;;;;;;5102867;27;43504;-76
2022/12/09 12:13:31;;;;;;;3.60;3.50;;;17.00;63.80;;;;;;5104161;27;45937;-78
2022/12/09 12:16:04;;;;;;;3.40;3.30;;;17.00;63.60;;;;;;5099541;27;44103;-76
2022/12/09 12:18:36;;;;;;;3.57;3.43;;;17.00;63.60;;;;;;5113454;27;44043;-76
2022/12/09 12:21:21;;;;;;;3.60;3.50;;;17.00;63.60;;;;;;5095797;27;44069;-77
2022/12/09 12:24:13;;;;;;;3.50;3.40;;;17.00;64.00;;;;;;5101719;27;45139;-76
2022/12/09 12:26:43;;;;;;;3.30;3.20;;;17.00;63.90;;;;;;5110101;27;43459;-74
2022/12/09 12:29:19;;;;;;;3.20;3.10;;;17.00;63.80;;;;;;5100778;27;44028;-76
2022/12/09 12:31:57;;;;;;;3.53;3.43;;;17.00;63.90;;;;;;5105159;27;43548;-77
2022/12/09 12:34:29;;;;;;;3.00;2.97;;;16.90;63.80;;;;;;5099581;27;43693;-76
2022/12/09 12:37:14;;;;;;;3.43;3.27;;;16.90;63.90;;;;;;5097926;27;43740;-76
2022/12/09 12:39:48;;;;;;;3.30;3.20;;;16.90;64.90;;;;;;5101548;27;43484;-77
2022/12/09 12:42:24;;;;;;;3.80;3.70;;;16.90;64.00;;;;;;5093699;27;43617;-76
2022/12/09 12:47:46;;;;;;;3.30;3.20;;;16.90;64.10;;;;;;5101037;27;43544;-75
2022/12/09 12:50:32;;;;;;;3.40;3.30;;;16.80;64.00;;;;;;5103107;27;43484;-76
2022/12/09 12:53:03;;;;;;;3.60;3.50;;;16.90;64.10;;;;;;5103705;27;43501;-75
2022/12/09 12:55:46;;;;;;;3.40;3.30;;;16.80;64.20;;;;;;5109846;27;43887;-77
2022/12/09 12:58:17;;;;;;;3.20;3.10;;;16.90;64.40;;;;;;5112726;27;43393;-77
2022/12/09 13:00:52;;;;;;;3.30;3.20;;;16.90;64.10;;;;;;5104362;27;43493;-75
2022/12/09 13:03:24;;;;;;;3.50;3.40;;;17.00;63.60;;;;;;5096209;27;43529;-72